sensor_id;sensor_type;location;lat;lon;timestamp;P1;durP1;ratioP1;P2;durP2;ratioP2
75691;SDS011;64307;52.508;6.090;2023-09-12T00:00:45;56.15;;;31.48;;
75691;SDS011;64307;52.508;6.090;2023-09-12T00:03:11;55.97;;;31.50;;
75691;SDS011;64307;52.508;6.090;2023-09-12T00:05:36;55.47;;;31.80;;
75691;SDS011;64307;52.508;6.090;2023-09-12T00:08:01;60.42;;;32.47;;
75691;SDS011;64307;52.508;6.090;2023-09-12T00:10:28;61.83;;;32.47;;
75691;SDS011;64307;52.508;6.090;2023-09-12T00:12:54;58.70;;;32.42;;
75691;SDS011;64307;52.508;6.090;2023-09-12T00:15:19;56.70;;;32.50;;
75691;SDS011;64307;52.508;6.090;2023-09-12T00:17:45;58.60;;;34.05;;
75691;SDS011;64307;52.508;6.090;2023-09-12T00:20:10;60.40;;;34.23;;
75691;SDS011;64307;52.508;6.090;2023-09-12T00:22:36;61.72;;;34.03;;
75691;SDS011;64307;52.508;6.090;2023-09-12T00:25:01;57.58;;;30.45;;
75691;SDS011;64307;52.508;6.090;2023-09-12T00:27:27;64.65;;;35.45;;
75691;SDS011;64307;52.508;6.090;2023-09-12T00:29:52;66.03;;;36.07;;
75691;SDS011;64307;52.508;6.090;2023-09-12T00:32:17;58.83;;;33.33;;
75691;SDS011;64307;52.508;6.090;2023-09-12T00:34:43;64.88;;;34.20;;
75691;SDS011;64307;52.508;6.090;2023-09-12T00:37:08;60.47;;;34.67;;
75691;SDS011;64307;52.508;6.090;2023-09-12T00:39:33;61.03;;;34.30;;
75691;SDS011;64307;52.508;6.090;2023-09-12T00:41:58;63.88;;;35.20;;
75691;SDS011;64307;52.508;6.090;2023-09-12T00:44:24;63.77;;;33.40;;
75691;SDS011;64307;52.508;6.090;2023-09-12T00:46:49;61.40;;;34.20;;
75691;SDS011;64307;52.508;6.090;2023-09-12T00:49:15;63.85;;;35.47;;
75691;SDS011;64307;52.508;6.090;2023-09-12T00:51:42;63.65;;;36.05;;
75691;SDS011;64307;52.508;6.090;2023-09-12T00:54:09;68.03;;;35.90;;
75691;SDS011;64307;52.508;6.090;2023-09-12T00:56:34;64.53;;;34.53;;
75691;SDS011;64307;52.508;6.090;2023-09-12T00:59:00;64.68;;;36.70;;
75691;SDS011;64307;52.508;6.090;2023-09-12T01:01:27;63.28;;;33.42;;
75691;SDS011;64307;52.508;6.090;2023-09-12T01:03:52;63.50;;;36.20;;
75691;SDS011;64307;52.508;6.090;2023-09-12T01:06:19;69.18;;;37.13;;
75691;SDS011;64307;52.508;6.090;2023-09-12T01:08:47;66.13;;;35.33;;
75691;SDS011;64307;52.508;6.090;2023-09-12T01:11:13;66.25;;;36.28;;
75691;SDS011;64307;52.508;6.090;2023-09-12T01:13:39;67.45;;;36.25;;
75691;SDS011;64307;52.508;6.090;2023-09-12T01:16:04;67.85;;;36.03;;
75691;SDS011;64307;52.508;6.090;2023-09-12T01:18:29;67.88;;;36.78;;
75691;SDS011;64307;52.508;6.090;2023-09-12T01:21:07;68.05;;;35.38;;
75691;SDS011;64307;52.508;6.090;2023-09-12T01:24:15;67.75;;;34.60;;
75691;SDS011;64307;52.508;6.090;2023-09-12T01:30:17;65.03;;;35.05;;
75691;SDS011;64307;52.508;6.090;2023-09-12T01:32:45;63.20;;;35.22;;
75691;SDS011;64307;52.508;6.090;2023-09-12T01:35:11;67.28;;;35.63;;
75691;SDS011;64307;52.508;6.090;2023-09-12T01:37:36;68.03;;;36.08;;
75691;SDS011;64307;52.508;6.090;2023-09-12T01:40:02;71.78;;;37.13;;
75691;SDS011;64307;52.508;6.090;2023-09-12T01:42:40;66.65;;;35.78;;
75691;SDS011;64307;52.508;6.090;2023-09-12T01:45:09;72.35;;;36.13;;
75691;SDS011;64307;52.508;6.090;2023-09-12T01:47:36;75.90;;;38.25;;
75691;SDS011;64307;52.508;6.090;2023-09-12T01:50:03;72.18;;;36.95;;
75691;SDS011;64307;52.508;6.090;2023-09-12T01:52:31;74.55;;;37.65;;
75691;SDS011;64307;52.508;6.090;2023-09-12T01:54:57;74.10;;;36.67;;
75691;SDS011;64307;52.508;6.090;2023-09-12T01:57:24;71.72;;;37.15;;
75691;SDS011;64307;52.508;6.090;2023-09-12T01:59:50;77.47;;;37.72;;
75691;SDS011;64307;52.508;6.090;2023-09-12T02:02:17;72.95;;;36.80;;
75691;SDS011;64307;52.508;6.090;2023-09-12T02:04:47;72.32;;;35.80;;
75691;SDS011;64307;52.508;6.090;2023-09-12T02:07:21;74.50;;;36.60;;
75691;SDS011;64307;52.508;6.090;2023-09-12T02:09:49;67.05;;;35.22;;
75691;SDS011;64307;52.508;6.090;2023-09-12T02:12:14;72.17;;;36.53;;
75691;SDS011;64307;52.508;6.090;2023-09-12T02:14:39;78.05;;;36.63;;
75691;SDS011;64307;52.508;6.090;2023-09-12T02:17:04;78.45;;;37.13;;
75691;SDS011;64307;52.508;6.090;2023-09-12T02:19:30;74.80;;;38.10;;
75691;SDS011;64307;52.508;6.090;2023-09-12T02:21:57;77.50;;;38.50;;
75691;SDS011;64307;52.508;6.090;2023-09-12T02:24:22;87.13;;;38.70;;
75691;SDS011;64307;52.508;6.090;2023-09-12T02:26:47;82.93;;;39.67;;
75691;SDS011;64307;52.508;6.090;2023-09-12T02:29:13;88.15;;;41.28;;
75691;SDS011;64307;52.508;6.090;2023-09-12T02:31:38;94.70;;;38.43;;
75691;SDS011;64307;52.508;6.090;2023-09-12T02:34:03;93.30;;;37.95;;
75691;SDS011;64307;52.508;6.090;2023-09-12T02:36:28;93.75;;;35.78;;
75691;SDS011;64307;52.508;6.090;2023-09-12T02:38:54;77.20;;;37.40;;
75691;SDS011;64307;52.508;6.090;2023-09-12T02:41:19;110.68;;;38.25;;
75691;SDS011;64307;52.508;6.090;2023-09-12T02:43:46;73.10;;;35.17;;
75691;SDS011;64307;52.508;6.090;2023-09-12T02:46:11;65.35;;;33.90;;
75691;SDS011;64307;52.508;6.090;2023-09-12T02:48:36;69.43;;;35.73;;
75691;SDS011;64307;52.508;6.090;2023-09-12T02:51:03;77.88;;;35.63;;
75691;SDS011;64307;52.508;6.090;2023-09-12T02:53:28;74.77;;;34.37;;
75691;SDS011;64307;52.508;6.090;2023-09-12T02:55:54;85.93;;;36.63;;
75691;SDS011;64307;52.508;6.090;2023-09-12T02:58:19;64.05;;;33.25;;
75691;SDS011;64307;52.508;6.090;2023-09-12T03:00:44;83.82;;;33.30;;
75691;SDS011;64307;52.508;6.090;2023-09-12T03:03:10;68.85;;;35.17;;
75691;SDS011;64307;52.508;6.090;2023-09-12T03:05:35;68.73;;;34.60;;
75691;SDS011;64307;52.508;6.090;2023-09-12T03:08:01;64.20;;;33.80;;
75691;SDS011;64307;52.508;6.090;2023-09-12T03:10:26;65.15;;;34.22;;
75691;SDS011;64307;52.508;6.090;2023-09-12T03:12:51;66.32;;;34.97;;
75691;SDS011;64307;52.508;6.090;2023-09-12T03:15:17;64.77;;;34.17;;
75691;SDS011;64307;52.508;6.090;2023-09-12T03:17:42;73.93;;;36.03;;
75691;SDS011;64307;52.508;6.090;2023-09-12T03:20:07;65.22;;;32.33;;
75691;SDS011;64307;52.508;6.090;2023-09-12T03:22:33;116.57;;;35.30;;
75691;SDS011;64307;52.508;6.090;2023-09-12T03:25:02;71.45;;;32.38;;
75691;SDS011;64307;52.508;6.090;2023-09-12T03:27:31;99.50;;;30.83;;
75691;SDS011;64307;52.508;6.090;2023-09-12T03:29:57;86.07;;;30.45;;
75691;SDS011;64307;52.508;6.090;2023-09-12T03:32:22;65.93;;;31.35;;
75691;SDS011;64307;52.508;6.090;2023-09-12T03:34:48;203.38;;;31.15;;
75691;SDS011;64307;52.508;6.090;2023-09-12T03:37:13;74.43;;;30.53;;
75691;SDS011;64307;52.508;6.090;2023-09-12T03:39:38;59.47;;;28.43;;
75691;SDS011;64307;52.508;6.090;2023-09-12T03:42:04;59.53;;;30.25;;
75691;SDS011;64307;52.508;6.090;2023-09-12T03:44:29;67.10;;;32.58;;
75691;SDS011;64307;52.508;6.090;2023-09-12T03:46:54;75.55;;;30.65;;
75691;SDS011;64307;52.508;6.090;2023-09-12T03:49:20;74.32;;;32.40;;
75691;SDS011;64307;52.508;6.090;2023-09-12T03:51:45;61.03;;;32.47;;
75691;SDS011;64307;52.508;6.090;2023-09-12T03:54:10;76.27;;;32.17;;
75691;SDS011;64307;52.508;6.090;2023-09-12T03:56:36;82.43;;;31.27;;
75691;SDS011;64307;52.508;6.090;2023-09-12T03:59:01;57.42;;;29.17;;
75691;SDS011;64307;52.508;6.090;2023-09-12T04:01:27;62.97;;;30.13;;
75691;SDS011;64307;52.508;6.090;2023-09-12T04:03:54;62.05;;;31.50;;
75691;SDS011;64307;52.508;6.090;2023-09-12T04:06:19;61.22;;;31.58;;
75691;SDS011;64307;52.508;6.090;2023-09-12T04:08:45;70.15;;;31.48;;
75691;SDS011;64307;52.508;6.090;2023-09-12T04:11:10;70.50;;;31.67;;
75691;SDS011;64307;52.508;6.090;2023-09-12T04:13:36;61.75;;;31.02;;
75691;SDS011;64307;52.508;6.090;2023-09-12T04:16:01;64.25;;;31.10;;
75691;SDS011;64307;52.508;6.090;2023-09-12T04:18:27;55.30;;;30.08;;
75691;SDS011;64307;52.508;6.090;2023-09-12T04:20:52;59.60;;;31.98;;
75691;SDS011;64307;52.508;6.090;2023-09-12T04:23:20;59.33;;;31.13;;
75691;SDS011;64307;52.508;6.090;2023-09-12T04:25:46;56.63;;;29.40;;
75691;SDS011;64307;52.508;6.090;2023-09-12T04:28:11;58.72;;;31.60;;
75691;SDS011;64307;52.508;6.090;2023-09-12T04:30:36;55.73;;;29.60;;
75691;SDS011;64307;52.508;6.090;2023-09-12T04:33:02;53.75;;;28.73;;
75691;SDS011;64307;52.508;6.090;2023-09-12T04:35:27;55.33;;;31.70;;
75691;SDS011;64307;52.508;6.090;2023-09-12T04:37:52;55.92;;;28.63;;
75691;SDS011;64307;52.508;6.090;2023-09-12T04:40:18;54.25;;;29.25;;
75691;SDS011;64307;52.508;6.090;2023-09-12T04:42:43;49.75;;;27.13;;
75691;SDS011;64307;52.508;6.090;2023-09-12T04:45:08;53.17;;;24.58;;
75691;SDS011;64307;52.508;6.090;2023-09-12T04:47:34;51.08;;;27.67;;
75691;SDS011;64307;52.508;6.090;2023-09-12T04:49:59;45.73;;;26.90;;
75691;SDS011;64307;52.508;6.090;2023-09-12T04:52:26;48.17;;;26.33;;
75691;SDS011;64307;52.508;6.090;2023-09-12T04:54:51;58.92;;;26.98;;
75691;SDS011;64307;52.508;6.090;2023-09-12T04:57:16;49.78;;;27.35;;
75691;SDS011;64307;52.508;6.090;2023-09-12T04:59:42;41.35;;;25.20;;
75691;SDS011;64307;52.508;6.090;2023-09-12T05:02:07;42.60;;;25.37;;
75691;SDS011;64307;52.508;6.090;2023-09-12T05:04:33;42.60;;;25.60;;
75691;SDS011;64307;52.508;6.090;2023-09-12T05:06:58;43.70;;;25.17;;
75691;SDS011;64307;52.508;6.090;2023-09-12T05:09:24;41.53;;;26.17;;
75691;SDS011;64307;52.508;6.090;2023-09-12T05:11:49;39.88;;;24.92;;
75691;SDS011;64307;52.508;6.090;2023-09-12T05:14:15;41.63;;;24.92;;
75691;SDS011;64307;52.508;6.090;2023-09-12T05:16:40;44.75;;;25.45;;
75691;SDS011;64307;52.508;6.090;2023-09-12T05:19:05;41.78;;;24.27;;
75691;SDS011;64307;52.508;6.090;2023-09-12T05:21:30;41.03;;;25.27;;
75691;SDS011;64307;52.508;6.090;2023-09-12T05:23:56;41.53;;;25.48;;
75691;SDS011;64307;52.508;6.090;2023-09-12T05:26:21;39.73;;;22.83;;
75691;SDS011;64307;52.508;6.090;2023-09-12T05:28:46;44.13;;;24.23;;
75691;SDS011;64307;52.508;6.090;2023-09-12T05:31:11;39.07;;;24.53;;
75691;SDS011;64307;52.508;6.090;2023-09-12T05:33:37;38.53;;;24.00;;
75691;SDS011;64307;52.508;6.090;2023-09-12T05:36:02;40.92;;;24.92;;
75691;SDS011;64307;52.508;6.090;2023-09-12T05:38:28;38.40;;;23.63;;
75691;SDS011;64307;52.508;6.090;2023-09-12T05:40:53;38.40;;;24.05;;
75691;SDS011;64307;52.508;6.090;2023-09-12T05:43:18;43.40;;;25.75;;
75691;SDS011;64307;52.508;6.090;2023-09-12T05:45:44;43.30;;;27.13;;
75691;SDS011;64307;52.508;6.090;2023-09-12T05:48:09;41.95;;;25.10;;
75691;SDS011;64307;52.508;6.090;2023-09-12T05:50:35;39.50;;;25.67;;
75691;SDS011;64307;52.508;6.090;2023-09-12T05:53:01;38.70;;;24.27;;
75691;SDS011;64307;52.508;6.090;2023-09-12T05:55:27;37.05;;;23.30;;
75691;SDS011;64307;52.508;6.090;2023-09-12T05:57:52;39.10;;;25.45;;
75691;SDS011;64307;52.508;6.090;2023-09-12T06:00:17;43.92;;;25.88;;
75691;SDS011;64307;52.508;6.090;2023-09-12T06:02:43;40.08;;;24.55;;
75691;SDS011;64307;52.508;6.090;2023-09-12T06:05:09;39.28;;;24.98;;
75691;SDS011;64307;52.508;6.090;2023-09-12T06:07:34;39.70;;;25.10;;
75691;SDS011;64307;52.508;6.090;2023-09-12T06:10:00;39.65;;;25.65;;
75691;SDS011;64307;52.508;6.090;2023-09-12T06:12:26;39.00;;;24.02;;
75691;SDS011;64307;52.508;6.090;2023-09-12T06:14:51;38.60;;;24.75;;
75691;SDS011;64307;52.508;6.090;2023-09-12T06:17:18;38.50;;;26.08;;
75691;SDS011;64307;52.508;6.090;2023-09-12T06:19:43;43.40;;;26.30;;
75691;SDS011;64307;52.508;6.090;2023-09-12T06:22:08;38.83;;;24.80;;
75691;SDS011;64307;52.508;6.090;2023-09-12T06:24:34;39.87;;;25.07;;
75691;SDS011;64307;52.508;6.090;2023-09-12T06:26:59;36.85;;;24.40;;
75691;SDS011;64307;52.508;6.090;2023-09-12T06:29:24;38.05;;;24.67;;
75691;SDS011;64307;52.508;6.090;2023-09-12T06:31:49;37.57;;;23.63;;
75691;SDS011;64307;52.508;6.090;2023-09-12T06:34:15;39.33;;;24.60;;
75691;SDS011;64307;52.508;6.090;2023-09-12T06:36:40;37.55;;;24.25;;
75691;SDS011;64307;52.508;6.090;2023-09-12T06:39:09;36.45;;;22.90;;
75691;SDS011;64307;52.508;6.090;2023-09-12T06:41:35;30.40;;;20.38;;
75691;SDS011;64307;52.508;6.090;2023-09-12T06:44:00;33.58;;;22.27;;
75691;SDS011;64307;52.508;6.090;2023-09-12T06:46:27;32.08;;;22.38;;
75691;SDS011;64307;52.508;6.090;2023-09-12T06:48:54;32.10;;;22.95;;
75691;SDS011;64307;52.508;6.090;2023-09-12T06:51:20;34.58;;;24.20;;
75691;SDS011;64307;52.508;6.090;2023-09-12T06:53:49;33.92;;;22.88;;
75691;SDS011;64307;52.508;6.090;2023-09-12T06:56:14;34.70;;;24.23;;
75691;SDS011;64307;52.508;6.090;2023-09-12T06:58:39;35.95;;;24.05;;
75691;SDS011;64307;52.508;6.090;2023-09-12T07:01:05;37.27;;;24.20;;
75691;SDS011;64307;52.508;6.090;2023-09-12T07:03:34;38.33;;;25.27;;
75691;SDS011;64307;52.508;6.090;2023-09-12T07:06:00;39.55;;;25.33;;
75691;SDS011;64307;52.508;6.090;2023-09-12T07:08:26;39.00;;;24.38;;
75691;SDS011;64307;52.508;6.090;2023-09-12T07:10:51;33.70;;;21.92;;
75691;SDS011;64307;52.508;6.090;2023-09-12T07:13:19;34.00;;;22.23;;
75691;SDS011;64307;52.508;6.090;2023-09-12T07:15:46;36.00;;;23.60;;
75691;SDS011;64307;52.508;6.090;2023-09-12T07:18:12;33.00;;;22.65;;
75691;SDS011;64307;52.508;6.090;2023-09-12T07:20:39;33.13;;;22.27;;
75691;SDS011;64307;52.508;6.090;2023-09-12T07:23:05;34.05;;;23.65;;
75691;SDS011;64307;52.508;6.090;2023-09-12T07:25:30;33.28;;;22.55;;
75691;SDS011;64307;52.508;6.090;2023-09-12T07:28:00;32.05;;;22.38;;
75691;SDS011;64307;52.508;6.090;2023-09-12T07:30:25;32.90;;;21.75;;
75691;SDS011;64307;52.508;6.090;2023-09-12T07:32:50;30.42;;;22.00;;
75691;SDS011;64307;52.508;6.090;2023-09-12T07:35:16;30.75;;;21.40;;
75691;SDS011;64307;52.508;6.090;2023-09-12T07:37:42;30.25;;;22.40;;
75691;SDS011;64307;52.508;6.090;2023-09-12T07:40:07;33.03;;;22.52;;
75691;SDS011;64307;52.508;6.090;2023-09-12T07:42:34;30.50;;;22.23;;
75691;SDS011;64307;52.508;6.090;2023-09-12T07:45:01;29.40;;;19.77;;
75691;SDS011;64307;52.508;6.090;2023-09-12T07:47:28;29.40;;;21.40;;
75691;SDS011;64307;52.508;6.090;2023-09-12T07:49:53;29.85;;;21.67;;
75691;SDS011;64307;52.508;6.090;2023-09-12T07:52:18;30.92;;;22.42;;
75691;SDS011;64307;52.508;6.090;2023-09-12T07:54:44;28.50;;;21.77;;
75691;SDS011;64307;52.508;6.090;2023-09-12T07:57:09;29.73;;;22.93;;
75691;SDS011;64307;52.508;6.090;2023-09-12T07:59:35;30.02;;;20.75;;
75691;SDS011;64307;52.508;6.090;2023-09-12T08:02:00;29.55;;;21.17;;
75691;SDS011;64307;52.508;6.090;2023-09-12T08:04:25;31.30;;;22.77;;
75691;SDS011;64307;52.508;6.090;2023-09-12T08:06:51;29.50;;;19.90;;
75691;SDS011;64307;52.508;6.090;2023-09-12T08:09:16;32.10;;;22.23;;
75691;SDS011;64307;52.508;6.090;2023-09-12T08:11:41;32.92;;;21.02;;
75691;SDS011;64307;52.508;6.090;2023-09-12T08:14:07;28.98;;;21.40;;
75691;SDS011;64307;52.508;6.090;2023-09-12T08:16:32;30.60;;;20.63;;
75691;SDS011;64307;52.508;6.090;2023-09-12T08:18:57;32.55;;;21.05;;
75691;SDS011;64307;52.508;6.090;2023-09-12T08:21:23;32.28;;;20.83;;
75691;SDS011;64307;52.508;6.090;2023-09-12T08:23:48;32.28;;;22.63;;
75691;SDS011;64307;52.508;6.090;2023-09-12T08:26:13;30.33;;;20.63;;
75691;SDS011;64307;52.508;6.090;2023-09-12T08:28:39;29.20;;;20.35;;
75691;SDS011;64307;52.508;6.090;2023-09-12T08:31:04;28.93;;;20.87;;
75691;SDS011;64307;52.508;6.090;2023-09-12T08:33:29;28.70;;;19.23;;
75691;SDS011;64307;52.508;6.090;2023-09-12T08:35:55;25.97;;;18.90;;
75691;SDS011;64307;52.508;6.090;2023-09-12T08:38:20;23.58;;;18.52;;
75691;SDS011;64307;52.508;6.090;2023-09-12T08:40:48;23.57;;;17.87;;
75691;SDS011;64307;52.508;6.090;2023-09-12T08:43:15;21.65;;;16.17;;
75691;SDS011;64307;52.508;6.090;2023-09-12T08:45:41;21.70;;;15.95;;
75691;SDS011;64307;52.508;6.090;2023-09-12T08:48:09;22.45;;;17.15;;
75691;SDS011;64307;52.508;6.090;2023-09-12T08:50:36;18.60;;;13.57;;
75691;SDS011;64307;52.508;6.090;2023-09-12T08:53:01;22.17;;;14.77;;
75691;SDS011;64307;52.508;6.090;2023-09-12T08:55:28;21.02;;;15.15;;
75691;SDS011;64307;52.508;6.090;2023-09-12T08:57:54;21.45;;;14.88;;
75691;SDS011;64307;52.508;6.090;2023-09-12T09:00:20;18.30;;;12.65;;
75691;SDS011;64307;52.508;6.090;2023-09-12T09:02:47;19.73;;;13.30;;
75691;SDS011;64307;52.508;6.090;2023-09-12T09:05:13;17.65;;;11.80;;
75691;SDS011;64307;52.508;6.090;2023-09-12T09:07:41;20.35;;;14.35;;
75691;SDS011;64307;52.508;6.090;2023-09-12T09:10:08;20.20;;;13.70;;
75691;SDS011;64307;52.508;6.090;2023-09-12T09:12:39;20.40;;;14.07;;
75691;SDS011;64307;52.508;6.090;2023-09-12T09:15:24;20.85;;;15.23;;
75691;SDS011;64307;52.508;6.090;2023-09-12T09:17:51;19.65;;;14.52;;
75691;SDS011;64307;52.508;6.090;2023-09-12T09:20:33;20.95;;;15.30;;
75691;SDS011;64307;52.508;6.090;2023-09-12T09:23:06;23.33;;;14.73;;
75691;SDS011;64307;52.508;6.090;2023-09-12T09:25:35;22.50;;;16.70;;
75691;SDS011;64307;52.508;6.090;2023-09-12T09:28:19;21.10;;;15.60;;
75691;SDS011;64307;52.508;6.090;2023-09-12T09:30:46;22.85;;;16.13;;
75691;SDS011;64307;52.508;6.090;2023-09-12T09:33:13;23.95;;;17.38;;
75691;SDS011;64307;52.508;6.090;2023-09-12T09:35:42;22.38;;;16.88;;
75691;SDS011;64307;52.508;6.090;2023-09-12T09:38:11;23.55;;;15.90;;
75691;SDS011;64307;52.508;6.090;2023-09-12T09:40:41;24.45;;;18.27;;
75691;SDS011;64307;52.508;6.090;2023-09-12T09:43:07;24.65;;;16.17;;
75691;SDS011;64307;52.508;6.090;2023-09-12T09:45:32;22.65;;;17.45;;
75691;SDS011;64307;52.508;6.090;2023-09-12T09:48:15;23.40;;;17.33;;
75691;SDS011;64307;52.508;6.090;2023-09-12T09:50:46;23.98;;;17.77;;
75691;SDS011;64307;52.508;6.090;2023-09-12T09:53:12;23.88;;;18.60;;
75691;SDS011;64307;52.508;6.090;2023-09-12T09:55:38;23.75;;;18.25;;
75691;SDS011;64307;52.508;6.090;2023-09-12T09:58:06;24.90;;;18.15;;
75691;SDS011;64307;52.508;6.090;2023-09-12T10:00:33;26.02;;;18.02;;
75691;SDS011;64307;52.508;6.090;2023-09-12T10:03:02;22.92;;;15.73;;
75691;SDS011;64307;52.508;6.090;2023-09-12T10:05:29;24.65;;;18.00;;
75691;SDS011;64307;52.508;6.090;2023-09-12T10:07:57;25.92;;;17.48;;
75691;SDS011;64307;52.508;6.090;2023-09-12T10:10:24;22.85;;;17.48;;
75691;SDS011;64307;52.508;6.090;2023-09-12T10:12:57;25.90;;;17.55;;
75691;SDS011;64307;52.508;6.090;2023-09-12T10:15:23;23.65;;;17.42;;
75691;SDS011;64307;52.508;6.090;2023-09-12T10:17:57;26.05;;;18.58;;
75691;SDS011;64307;52.508;6.090;2023-09-12T10:20:45;24.83;;;17.02;;
75691;SDS011;64307;52.508;6.090;2023-09-12T10:23:35;22.65;;;15.98;;
75691;SDS011;64307;52.508;6.090;2023-09-12T10:26:07;21.23;;;15.77;;
75691;SDS011;64307;52.508;6.090;2023-09-12T10:28:40;20.02;;;14.60;;
75691;SDS011;64307;52.508;6.090;2023-09-12T10:31:06;21.60;;;14.95;;
75691;SDS011;64307;52.508;6.090;2023-09-12T10:33:34;18.40;;;14.02;;
75691;SDS011;64307;52.508;6.090;2023-09-12T10:36:01;25.02;;;15.95;;
75691;SDS011;64307;52.508;6.090;2023-09-12T10:38:29;22.10;;;16.05;;
75691;SDS011;64307;52.508;6.090;2023-09-12T10:40:58;24.17;;;16.30;;
75691;SDS011;64307;52.508;6.090;2023-09-12T10:43:26;21.15;;;15.23;;
75691;SDS011;64307;52.508;6.090;2023-09-12T10:45:53;21.50;;;16.70;;
75691;SDS011;64307;52.508;6.090;2023-09-12T10:48:19;25.63;;;16.30;;
75691;SDS011;64307;52.508;6.090;2023-09-12T10:50:44;22.02;;;15.73;;
75691;SDS011;64307;52.508;6.090;2023-09-12T10:53:14;24.02;;;16.60;;
75691;SDS011;64307;52.508;6.090;2023-09-12T10:55:41;23.30;;;16.40;;
75691;SDS011;64307;52.508;6.090;2023-09-12T10:58:08;24.95;;;17.83;;
75691;SDS011;64307;52.508;6.090;2023-09-12T11:00:35;22.27;;;16.95;;
75691;SDS011;64307;52.508;6.090;2023-09-12T11:05:54;19.23;;;15.18;;
75691;SDS011;64307;52.508;6.090;2023-09-12T11:08:22;18.55;;;13.07;;
75691;SDS011;64307;52.508;6.090;2023-09-12T11:13:44;17.40;;;12.20;;
75691;SDS011;64307;52.508;6.090;2023-09-12T11:16:11;23.02;;;16.02;;
75691;SDS011;64307;52.508;6.090;2023-09-12T11:21:48;22.05;;;15.35;;
75691;SDS011;64307;52.508;6.090;2023-09-12T11:24:15;18.75;;;13.93;;
75691;SDS011;64307;52.508;6.090;2023-09-12T11:26:58;20.17;;;14.80;;
75691;SDS011;64307;52.508;6.090;2023-09-12T11:32:01;20.42;;;16.13;;
75691;SDS011;64307;52.508;6.090;2023-09-12T11:34:28;20.17;;;14.15;;
75691;SDS011;64307;52.508;6.090;2023-09-12T11:36:55;22.95;;;16.27;;
75691;SDS011;64307;52.508;6.090;2023-09-12T11:39:29;22.92;;;16.42;;
75691;SDS011;64307;52.508;6.090;2023-09-12T11:41:56;23.10;;;15.52;;
75691;SDS011;64307;52.508;6.090;2023-09-12T11:44:23;20.60;;;13.48;;
75691;SDS011;64307;52.508;6.090;2023-09-12T11:46:51;17.60;;;12.43;;
75691;SDS011;64307;52.508;6.090;2023-09-12T11:49:17;17.60;;;12.48;;
75691;SDS011;64307;52.508;6.090;2023-09-12T11:51:52;21.48;;;11.98;;
75691;SDS011;64307;52.508;6.090;2023-09-12T11:54:19;18.70;;;13.35;;
75691;SDS011;64307;52.508;6.090;2023-09-12T11:56:46;15.85;;;12.32;;
75691;SDS011;64307;52.508;6.090;2023-09-12T11:59:14;18.30;;;10.07;;
75691;SDS011;64307;52.508;6.090;2023-09-12T12:01:39;14.15;;;10.35;;
75691;SDS011;64307;52.508;6.090;2023-09-12T12:04:05;18.70;;;10.55;;
75691;SDS011;64307;52.508;6.090;2023-09-12T12:06:32;18.50;;;14.07;;
75691;SDS011;64307;52.508;6.090;2023-09-12T12:08:57;16.13;;;11.48;;
75691;SDS011;64307;52.508;6.090;2023-09-12T12:11:26;16.23;;;10.85;;
75691;SDS011;64307;52.508;6.090;2023-09-12T12:13:53;13.45;;;9.73;;
75691;SDS011;64307;52.508;6.090;2023-09-12T12:16:18;15.50;;;9.55;;
75691;SDS011;64307;52.508;6.090;2023-09-12T12:18:44;14.52;;;9.43;;
75691;SDS011;64307;52.508;6.090;2023-09-12T12:21:09;13.20;;;8.82;;
75691;SDS011;64307;52.508;6.090;2023-09-12T12:23:35;14.07;;;7.97;;
75691;SDS011;64307;52.508;6.090;2023-09-12T12:26:05;17.57;;;8.50;;
75691;SDS011;64307;52.508;6.090;2023-09-12T12:28:33;12.13;;;9.27;;
75691;SDS011;64307;52.508;6.090;2023-09-12T12:31:00;12.65;;;9.20;;
75691;SDS011;64307;52.508;6.090;2023-09-12T12:33:25;13.57;;;9.38;;
75691;SDS011;64307;52.508;6.090;2023-09-12T12:35:58;13.53;;;8.63;;
75691;SDS011;64307;52.508;6.090;2023-09-12T12:38:33;15.50;;;9.52;;
75691;SDS011;64307;52.508;6.090;2023-09-12T12:41:00;13.50;;;9.93;;
75691;SDS011;64307;52.508;6.090;2023-09-12T12:43:26;15.93;;;11.05;;
75691;SDS011;64307;52.508;6.090;2023-09-12T12:45:55;17.55;;;9.50;;
75691;SDS011;64307;52.508;6.090;2023-09-12T12:48:32;13.13;;;9.48;;
75691;SDS011;64307;52.508;6.090;2023-09-12T12:50:58;12.30;;;7.82;;
75691;SDS011;64307;52.508;6.090;2023-09-12T12:53:40;12.00;;;8.02;;
75691;SDS011;64307;52.508;6.090;2023-09-12T12:56:06;11.90;;;7.10;;
75691;SDS011;64307;52.508;6.090;2023-09-12T12:58:32;11.05;;;6.15;;
75691;SDS011;64307;52.508;6.090;2023-09-12T13:00:58;10.18;;;5.72;;
75691;SDS011;64307;52.508;6.090;2023-09-12T13:03:23;9.68;;;5.88;;
75691;SDS011;64307;52.508;6.090;2023-09-12T13:05:48;10.50;;;7.43;;
75691;SDS011;64307;52.508;6.090;2023-09-12T13:08:14;12.05;;;6.85;;
75691;SDS011;64307;52.508;6.090;2023-09-12T13:10:39;12.23;;;7.90;;
75691;SDS011;64307;52.508;6.090;2023-09-12T13:13:07;10.00;;;5.85;;
75691;SDS011;64307;52.508;6.090;2023-09-12T13:15:32;12.60;;;6.97;;
75691;SDS011;64307;52.508;6.090;2023-09-12T13:17:58;11.13;;;7.25;;
75691;SDS011;64307;52.508;6.090;2023-09-12T13:20:23;11.63;;;7.70;;
75691;SDS011;64307;52.508;6.090;2023-09-12T13:22:48;11.90;;;7.78;;
75691;SDS011;64307;52.508;6.090;2023-09-12T13:25:14;12.45;;;7.60;;
75691;SDS011;64307;52.508;6.090;2023-09-12T13:27:39;14.52;;;9.18;;
75691;SDS011;64307;52.508;6.090;2023-09-12T13:30:05;13.35;;;7.15;;
75691;SDS011;64307;52.508;6.090;2023-09-12T13:32:31;13.80;;;7.78;;
75691;SDS011;64307;52.508;6.090;2023-09-12T13:34:58;15.10;;;7.78;;
75691;SDS011;64307;52.508;6.090;2023-09-12T13:37:23;11.50;;;7.05;;
75691;SDS011;64307;52.508;6.090;2023-09-12T13:39:48;11.25;;;7.43;;
75691;SDS011;64307;52.508;6.090;2023-09-12T13:42:17;13.32;;;7.30;;
75691;SDS011;64307;52.508;6.090;2023-09-12T13:44:48;14.93;;;7.63;;
75691;SDS011;64307;52.508;6.090;2023-09-12T13:47:14;11.90;;;6.20;;
75691;SDS011;64307;52.508;6.090;2023-09-12T13:49:46;14.82;;;7.70;;
75691;SDS011;64307;52.508;6.090;2023-09-12T13:52:11;14.48;;;7.70;;
75691;SDS011;64307;52.508;6.090;2023-09-12T13:54:36;14.30;;;8.53;;
75691;SDS011;64307;52.508;6.090;2023-09-12T13:57:03;12.63;;;8.03;;
75691;SDS011;64307;52.508;6.090;2023-09-12T13:59:28;15.15;;;8.70;;
75691;SDS011;64307;52.508;6.090;2023-09-12T14:01:53;17.50;;;9.60;;
75691;SDS011;64307;52.508;6.090;2023-09-12T14:04:19;16.70;;;8.13;;
75691;SDS011;64307;52.508;6.090;2023-09-12T14:06:45;14.13;;;7.88;;
75691;SDS011;64307;52.508;6.090;2023-09-12T14:09:10;12.53;;;6.83;;
75691;SDS011;64307;52.508;6.090;2023-09-12T14:11:35;12.63;;;7.28;;
75691;SDS011;64307;52.508;6.090;2023-09-12T14:14:04;13.90;;;7.37;;
75691;SDS011;64307;52.508;6.090;2023-09-12T14:16:29;11.02;;;6.28;;
75691;SDS011;64307;52.508;6.090;2023-09-12T14:18:55;10.30;;;5.35;;
75691;SDS011;64307;52.508;6.090;2023-09-12T14:21:20;8.60;;;5.07;;
75691;SDS011;64307;52.508;6.090;2023-09-12T14:23:46;11.50;;;5.72;;
75691;SDS011;64307;52.508;6.090;2023-09-12T14:26:11;11.07;;;4.35;;
75691;SDS011;64307;52.508;6.090;2023-09-12T14:28:37;8.88;;;3.80;;
75691;SDS011;64307;52.508;6.090;2023-09-12T14:31:02;6.50;;;2.63;;
75691;SDS011;64307;52.508;6.090;2023-09-12T14:33:29;8.27;;;4.47;;
75691;SDS011;64307;52.508;6.090;2023-09-12T14:35:55;7.78;;;4.07;;